Time;durP1;ratioP1;P1;durP2;ratioP2;P2;SDS_P1;SDS_P2;PMS_P1;PMS_P2;Temp;Humidity;BMP_temperature;BMP_pressure;BME280_temperature;BME280_humidity;BME280_pressure;Samples;Min_cycle;Max_cycle;Signal;HPM_P1;HPM_P2
2021/09/18 00:01:00;;;;;;;;;9.50;8.00;;;;;23.72;43.42;100926.41;5077648;28;45325;-61
2021/09/18 00:03:26;;;;;;;;;14.25;12.50;;;;;23.71;43.25;100925.59;5059372;28;45402;-58
2021/09/18 00:05:51;;;;;;;;;14.00;12.50;;;;;23.72;43.11;100927.28;5059486;28;45572;-59
2021/09/18 00:08:16;;;;;;;;;12.25;11.25;;;;;23.73;43.64;100925.47;5077879;28;46284;-61
2021/09/18 00:10:42;;;;;;;;;11.00;11.00;;;;;23.71;43.30;100920.28;5077573;28;45378;-54
2021/09/18 00:13:07;;;;;;;;;11.50;11.00;;;;;23.73;43.69;100928.13;5077620;28;45331;-56
2021/09/18 00:15:34;;;;;;;;;12.75;12.75;;;;;23.74;43.57;100919.22;5059454;28;45354;-54
2021/09/18 00:18:00;;;;;;;;;10.50;10.00;;;;;23.73;43.47;100923.69;5077419;28;46632;-53
2021/09/18 00:20:26;;;;;;;;;10.50;10.50;;;;;23.72;43.72;100916.69;5077382;28;45828;-53
2021/09/18 00:22:51;;;;;;;;;13.50;13.50;;;;;23.72;43.18;100919.34;5077563;28;45316;-54
2021/09/18 00:25:16;;;;;;;;;13.50;12.75;;;;;23.74;43.33;100924.53;5078012;28;45316;-61
2021/09/18 00:27:42;;;;;;;;;12.25;12.25;;;;;23.74;43.73;100922.75;5077291;28;46534;-59
2021/09/18 00:30:07;;;;;;;;;11.00;11.00;;;;;23.73;43.66;100921.03;5077163;28;45206;-58
2021/09/18 00:32:33;;;;;;;;;15.75;15.25;;;;;23.75;43.33;100926.22;5077310;28;45810;-59
2021/09/18 00:34:58;;;;;;;;;15.50;15.00;;;;;23.75;43.46;100919.16;5077366;28;45347;-55
2021/09/18 00:37:24;;;;;;;;;13.25;12.25;;;;;23.74;43.62;100924.53;5077107;28;46402;-56
2021/09/18 00:39:49;;;;;;;;;14.50;13.75;;;;;23.74;43.79;100920.09;5077092;28;45351;-54
2021/09/18 00:42:15;;;;;;;;;13.50;13.50;;;;;23.74;43.33;100911.28;5077469;28;45280;-52
2021/09/18 00:44:40;;;;;;;;;14.00;14.00;;;;;23.74;43.49;100917.44;5059107;28;45587;-58
2021/09/18 00:47:05;;;;;;;;;14.00;14.00;;;;;23.74;43.72;100908.66;5077051;28;46630;-60
2021/09/18 00:49:31;;;;;;;;;13.25;12.25;;;;;23.73;43.66;100907.81;5076784;28;45453;-55
2021/09/18 00:51:57;;;;;;;;;16.50;14.50;;;;;23.73;43.62;100910.47;5058736;28;45421;-58
2021/09/18 00:54:24;;;;;;;;;12.25;11.25;;;;;23.72;43.64;100905.25;5076974;28;45503;-56
2021/09/18 00:56:53;;;;;;;;;15.50;12.50;;;;;23.73;43.64;100901.66;5076462;28;46512;-53
2021/09/18 00:59:20;;;;;;;;;14.00;11.00;;;;;23.73;43.60;100902.53;5077050;28;45931;-57
2021/09/18 01:01:45;;;;;;;;;15.25;14.00;;;;;23.72;43.61;100898.19;5077317;28;45312;-49
2021/09/18 01:04:10;;;;;;;;;13.00;13.00;;;;;23.73;43.28;100896.38;5076986;28;45265;-57
2021/09/18 01:06:36;;;;;;;;;13.25;13.25;;;;;23.71;43.57;100896.47;5076660;28;46526;-55
2021/09/18 01:09:02;;;;;;;;;12.75;12.50;;;;;23.71;43.64;100901.78;5076649;28;45502;-59
2021/09/18 01:11:28;;;;;;;;;14.00;13.00;;;;;23.72;43.37;100903.47;5076826;28;45319;-53
2021/09/18 01:13:54;;;;;;;;;14.25;14.25;;;;;23.72;43.58;100905.25;5092760;27;45490;-54
2021/09/18 01:16:20;;;;;;;;;14.75;13.50;;;;;23.71;43.32;100899.13;5076918;28;45330;-58
2021/09/18 01:18:46;;;;;;;;;13.75;13.75;;;;;23.72;43.67;100897.31;5076830;28;45746;-57
2021/09/18 01:21:12;;;;;;;;;13.50;13.50;;;;;23.72;43.44;100892.88;5076700;28;45342;-57
2021/09/18 01:23:37;;;;;;;;;13.25;13.25;;;;;23.72;43.26;100894.66;5058669;28;45707;-54
2021/09/18 01:26:03;;;;;;;;;15.00;14.00;;;;;23.72;43.80;100890.25;5076346;28;46318;-48
2021/09/18 01:28:28;;;;;;;;;14.25;14.00;;;;;23.73;43.49;100893.72;5076481;28;45394;-52
2021/09/18 01:30:53;;;;;;;;;14.00;13.75;;;;;23.71;43.76;100893.84;5076586;28;45298;-47
2021/09/18 01:33:19;;;;;;;;;14.50;12.50;;;;;23.72;43.49;100894.66;5076934;28;45157;-50
2021/09/18 01:35:45;;;;;;;;;15.50;13.50;;;;;23.71;43.41;100891.19;5076202;28;46069;-49
2021/09/18 01:38:10;;;;;;;;;13.50;11.50;;;;;23.72;43.50;100889.38;5076247;28;45307;-51
2021/09/18 01:40:39;;;;;;;;;14.00;13.00;;;;;23.73;43.22;100896.38;5076397;28;45499;-53
2021/09/18 01:43:05;;;;;;;;;14.00;13.00;;;;;23.72;43.62;100889.38;5076492;28;45594;-50
2021/09/18 01:45:34;;;;;;;;;13.75;13.75;;;;;23.71;43.74;100896.47;5076165;28;47146;-51
2021/09/18 01:48:02;;;;;;;;;13.50;12.25;;;;;23.72;43.75;100892.03;5076248;28;45802;-54
2021/09/18 01:50:35;;;;;;;;;14.50;12.50;;;;;23.71;43.81;100891.19;5076383;28;45550;-52
2021/09/18 01:53:07;;;;;;;;;14.00;13.25;;;;;23.71;43.52;100893.84;5076414;28;45284;-50
2021/09/18 01:55:33;;;;;;;;;13.00;12.25;;;;;23.71;43.50;100901.78;5075985;28;46450;-50
2021/09/18 01:57:59;;;;;;;;;15.25;14.00;;;;;23.71;43.46;100885.03;5076143;28;45310;-49
2021/09/18 02:00:25;;;;;;;;;17.00;15.50;;;;;23.72;43.60;100899.97;5100283;27;45207;-49
2021/09/18 02:02:51;;;;;;;;;14.25;14.25;;;;;23.70;43.54;100886.84;5076578;28;45593;-48
2021/09/18 02:05:23;;;;;;;;;13.25;11.75;;;;;23.70;43.69;100896.59;5075954;28;45428;-51
2021/09/18 02:07:48;;;;;;;;;13.75;12.00;;;;;23.69;43.52;100895.72;5079022;28;45739;-50
2021/09/18 02:10:18;;;;;;;;;15.75;14.00;;;;;23.67;43.72;100889.69;5079659;28;45605;-51
2021/09/18 02:12:44;;;;;;;;;15.00;14.00;;;;;23.67;43.78;100896.78;5079771;28;45614;-52
2021/09/18 02:15:11;;;;;;;;;10.25;10.25;;;;;23.68;43.65;100891.38;5079407;28;46262;-48
2021/09/18 02:17:37;;;;;;;;;14.00;13.50;;;;;23.66;43.37;100890.63;5079342;28;45791;-49
2021/09/18 02:20:08;;;;;;;;;15.50;13.00;;;;;23.66;43.75;100890.63;5079396;28;45267;-54
2021/09/18 02:22:34;;;;;;;;;17.25;14.75;;;;;23.66;43.69;100885.34;5079556;28;45427;-50
2021/09/18 02:24:59;;;;;;;;;12.75;12.00;;;;;23.65;43.85;100883.66;5079167;28;45428;-50
2021/09/18 02:27:24;;;;;;;;;15.75;13.75;;;;;23.64;43.39;100887.28;5079054;28;45380;-49
2021/09/18 02:29:50;;;;;;;;;13.25;12.00;;;;;23.65;43.31;100888.94;5079584;28;45337;-51
2021/09/18 02:32:15;;;;;;;;;13.00;13.00;;;;;23.64;43.92;100884.63;5079337;28;45329;-52
2021/09/18 02:34:41;;;;;;;;;15.00;14.00;;;;;23.64;43.45;100884.63;5078963;28;46521;-52
2021/09/18 02:37:06;;;;;;;;;11.50;11.50;;;;;23.62;43.49;100878.59;5079108;27;45341;-50
2021/09/18 02:39:32;;;;;;;;;17.00;12.50;;;;;23.62;43.36;100879.41;5079189;28;45333;-48
2021/09/18 02:41:57;;;;;;;;;14.00;11.75;;;;;23.61;43.47;100879.53;5079173;28;45582;-54
2021/09/18 02:44:22;;;;;;;;;14.25;13.25;;;;;23.60;43.82;100883.13;5079244;27;45231;-51
2021/09/18 02:46:48;;;;;;;;;12.50;12.25;;;;;23.60;43.69;100880.47;5078983;28;45196;-52
2021/09/18 02:49:13;;;;;;;;;12.25;11.00;;;;;23.60;43.28;100880.47;5079085;27;45344;-49
2021/09/18 02:51:38;;;;;;;;;13.50;12.00;;;;;23.59;43.19;100878.78;5079055;27;45318;-53
2021/09/18 02:54:04;;;;;;;;;12.25;11.00;;;;;23.59;43.58;100878.78;5078682;28;45336;-51
2021/09/18 02:56:29;;;;;;;;;12.75;11.50;;;;;23.59;43.29;100876.13;5078704;28;45333;-49
2021/09/18 02:58:54;;;;;;;;;13.50;12.75;;;;;23.58;43.61;100877.09;5079127;28;45222;-53
2021/09/18 03:01:20;;;;;;;;;11.50;10.50;;;;;23.57;43.55;100872.75;5078686;28;45560;-50
2021/09/18 03:03:45;;;;;;;;;12.00;12.00;;;;;23.56;43.49;100871.06;5078637;28;45603;-58
2021/09/18 03:06:11;;;;;;;;;10.25;10.25;;;;;23.53;43.51;100874.75;5078745;28;45398;-50
2021/09/18 03:08:36;;;;;;;;;11.50;11.50;;;;;23.53;43.72;100880.03;5078762;28;45300;-49
2021/09/18 03:11:01;;;;;;;;;11.25;11.25;;;;;23.52;43.19;100883.66;5078680;28;45586;-51
2021/09/18 03:13:27;;;;;;;;;9.50;9.00;;;;;23.52;43.36;100882.81;5078406;28;46551;-50
2021/09/18 03:15:52;;;;;;;;;11.75;10.00;;;;;23.50;43.38;100882.91;5078715;28;45338;-51
2021/09/18 03:18:17;;;;;;;;;11.75;10.25;;;;;23.50;43.20;100887.34;5077855;28;45338;-53
2021/09/18 03:20:43;;;;;;;;;10.50;10.50;;;;;23.47;43.35;100869.91;5078757;28;45465;-54
2021/09/18 03:23:08;;;;;;;;;11.75;11.00;;;;;23.47;43.55;100878.66;5078250;28;45420;-58
2021/09/18 03:25:35;;;;;;;;;10.00;10.00;;;;;23.47;43.64;100877.84;5078275;28;45249;-48
2021/09/18 03:28:01;;;;;;;;;11.75;10.50;;;;;23.46;43.31;100878.78;5078340;28;45426;-52
2021/09/18 03:30:26;;;;;;;;;12.50;11.00;;;;;23.45;43.67;100866.50;5078780;28;45338;-50
2021/09/18 03:32:52;;;;;;;;;16.00;13.00;;;;;23.44;43.37;100865.63;5078093;28;46588;-49
2021/09/18 03:35:17;;;;;;;;;10.75;10.75;;;;;23.43;43.62;100863.94;5078169;28;45190;-49
2021/09/18 03:37:42;;;;;;;;;11.75;11.75;;;;;23.43;43.60;100863.09;5078399;28;45713;-52
2021/09/18 03:40:10;;;;;;;;;10.75;10.25;;;;;23.42;43.30;100862.28;5078292;28;45506;-54
2021/09/18 03:42:37;;;;;;;;;10.25;10.25;;;;;23.40;43.40;100855.38;5077885;28;47406;-52
2021/09/18 03:45:04;;;;;;;;;10.00;10.00;;;;;23.41;43.67;100857.94;5078014;28;45452;-48
2021/09/18 03:47:29;;;;;;;;;11.00;11.00;;;;;23.39;43.30;100856.31;5078132;28;45469;-53
2021/09/18 03:49:54;;;;;;;;;9.75;9.75;;;;;23.40;43.60;100861.53;5078506;28;45396;-53
2021/09/18 03:52:20;;;;;;;;;12.75;10.75;;;;;23.39;43.73;100861.59;5077692;28;46560;-56
2021/09/18 03:54:46;;;;;;;;;13.50;12.25;;;;;23.37;43.67;100859.06;5077950;28;45347;-52
2021/09/18 03:57:11;;;;;;;;;11.00;11.00;;;;;23.39;43.41;100866.91;5077954;28;45242;-58
2021/09/18 03:59:36;;;;;;;;;11.00;9.00;;;;;23.42;43.60;100872.84;5077986;28;45252;-51
2021/09/18 04:02:02;;;;;;;;;10.00;10.00;;;;;23.41;43.65;100865.88;5077812;28;45355;-53
2021/09/18 04:04:27;;;;;;;;;14.00;11.50;;;;;23.41;43.59;100870.28;5078056;28;45460;-51
2021/09/18 04:06:53;;;;;;;;;10.00;10.00;;;;;23.43;43.37;100874.53;5077841;28;45599;-52
2021/09/18 04:09:18;;;;;;;;;11.25;10.50;;;;;23.43;43.62;100877.16;5077933;28;45386;-56
2021/09/18 04:11:44;;;;;;;;;0.25;0.25;;;;;23.44;43.30;100876.22;5077580;28;46511;-49
2021/09/18 04:14:10;;;;;;;;;13.50;12.25;;;;;23.44;43.79;100881.50;5077638;28;45292;-52
2021/09/18 04:16:35;;;;;;;;;11.00;11.00;;;;;23.44;43.40;100881.50;5077730;28;45252;-49
2021/09/18 04:19:00;;;;;;;;;10.00;8.75;;;;;23.44;43.70;100875.38;5077804;28;45259;-48
2021/09/18 04:21:26;;;;;;;;;11.00;8.00;;;;;23.45;43.32;100883.19;5077672;28;46421;-47
2021/09/18 04:23:51;;;;;;;;;10.00;10.00;;;;;23.45;43.35;100877.91;5077387;28;45313;-45
2021/09/18 04:26:17;;;;;;;;;10.00;10.00;;;;;23.45;43.33;100872.63;5077495;28;45339;-46
2021/09/18 04:28:42;;;;;;;;;11.75;9.50;;;;;23.44;43.62;100870.94;5077651;28;45382;-46
2021/09/18 04:31:07;;;;;;;;;13.00;10.75;;;;;23.45;43.51;100874.44;5075933;28;46626;-45
2021/09/18 04:33:33;;;;;;;;;12.75;11.00;;;;;23.44;43.14;100870.94;5077290;28;45483;-52
2021/09/18 04:35:58;;;;;;;;;13.00;11.00;;;;;23.44;43.52;100872.75;5077555;28;45400;-51
2021/09/18 04:38:24;;;;;;;;;10.75;10.75;;;;;23.42;43.51;100867.56;5077527;28;45562;-57
2021/09/18 04:40:49;;;;;;;;;12.50;8.75;;;;;23.43;43.42;100871.88;5076994;28;45459;-53
2021/09/18 04:43:14;;;;;;;;;9.75;9.75;;;;;23.44;43.40;100870.94;5077173;28;45387;-53
2021/09/18 04:45:40;;;;;;;;;9.50;9.25;;;;;23.44;43.33;100878.88;5077190;28;45310;-46
2021/09/18 04:48:05;;;;;;;;;9.75;9.75;;;;;23.44;43.25;100884.16;5077391;28;45342;-57
2021/09/18 04:50:30;;;;;;;;;10.50;10.50;;;;;23.45;43.51;100877.09;5077130;28;45371;-58
2021/09/18 04:52:56;;;;;;;;;12.50;11.00;;;;;23.45;43.49;100883.19;5077143;28;45515;-54
2021/09/18 04:55:21;;;;;;;;;11.25;10.50;;;;;23.45;43.38;100877.91;5058804;28;45354;-50
2021/09/18 04:57:46;;;;;;;;;11.25;10.00;;;;;23.44;43.29;100886.78;5077279;28;45217;-53
2021/09/18 05:00:12;;;;;;;;;10.75;8.75;;;;;23.45;43.62;100892.94;5076366;28;47710;-52
2021/09/18 05:02:37;;;;;;;;;9.25;9.25;;;;;23.42;43.34;100888.72;5076826;28;45245;-50
2021/09/18 05:05:03;;;;;;;;;11.50;11.25;;;;;23.44;43.76;100889.44;5077015;28;45334;-51
2021/09/18 05:07:28;;;;;;;;;13.25;11.25;;;;;23.45;43.57;100890.31;5077291;28;45505;-50
2021/09/18 05:09:54;;;;;;;;;10.00;9.25;;;;;23.44;43.36;100888.59;5076570;28;46585;-55
2021/09/18 05:12:19;;;;;;;;;9.25;9.25;;;;;23.44;43.55;100886.78;5076651;28;45380;-52
2021/09/18 05:14:44;;;;;;;;;11.00;9.75;;;;;23.45;43.45;100892.94;5076722;28;45162;-52
2021/09/18 05:17:10;;;;;;;;;8.75;8.50;;;;;23.46;43.27;100892.00;5077016;28;45179;-52
2021/09/18 05:19:35;;;;;;;;;11.25;11.00;;;;;23.45;43.46;100891.13;5076456;28;46435;-47
2021/09/18 05:22:00;;;;;;;;;8.75;8.75;;;;;23.44;43.31;100892.09;5076781;28;45276;-50
2021/09/18 05:24:27;;;;;;;;;9.00;9.00;;;;;23.45;43.43;100899.06;5076660;28;45379;-50
2021/09/18 05:26:53;;;;;;;;;10.25;9.00;;;;;23.45;43.14;100903.53;5076894;28;46232;-47
2021/09/18 05:29:18;;;;;;;;;10.25;9.00;;;;;23.44;43.65;100899.19;5076427;28;46450;-53
2021/09/18 05:31:43;;;;;;;;;9.50;9.50;;;;;23.45;43.19;100896.44;5076426;28;46023;-47
2021/09/18 05:34:09;;;;;;;;;9.00;8.00;;;;;23.41;43.51;100889.66;5076562;28;45426;-51
2021/09/18 05:36:35;;;;;;;;;9.75;9.50;;;;;23.43;43.27;100898.31;5058342;28;45599;-46
2021/09/18 05:39:00;;;;;;;;;11.00;11.00;;;;;23.43;43.54;100902.78;5076567;28;46429;-50
2021/09/18 05:41:26;;;;;;;;;9.75;9.75;;;;;23.41;43.14;100908.19;5077070;28;45315;-50
2021/09/18 05:43:51;;;;;;;;;10.00;10.00;;;;;23.40;43.34;100905.63;5080019;28;45276;-53
2021/09/18 05:46:16;;;;;;;;;8.75;8.75;;;;;23.40;43.16;100902.97;5080146;28;45454;-46
2021/09/18 05:48:42;;;;;;;;;11.25;9.50;;;;;23.39;43.22;100904.78;5079906;28;45517;-47
2021/09/18 05:51:07;;;;;;;;;9.75;9.50;;;;;23.38;43.56;100902.22;5079691;28;45361;-50
2021/09/18 05:53:32;;;;;;;;;9.00;8.50;;;;;23.37;43.49;100904.03;5080241;28;45308;-52
2021/09/18 05:55:58;;;;;;;;;8.50;8.50;;;;;23.37;43.30;100904.03;5079983;28;45191;-53
2021/09/18 05:58:23;;;;;;;;;12.25;10.75;;;;;23.36;43.50;100915.56;5079610;28;45352;-47
2021/09/18 06:00:48;;;;;;;;;13.25;9.00;;;;;23.35;43.52;100903.28;5079154;28;54295;-50
2021/09/18 06:03:14;;;;;;;;;12.50;11.00;;;;;23.35;43.61;100905.09;5079839;28;45311;-54
2021/09/18 06:05:39;;;;;;;;;11.00;8.50;;;;;23.36;43.33;100920.84;5080017;28;45536;-53
2021/09/18 06:08:04;;;;;;;;;10.50;10.50;;;;;23.35;43.38;100919.16;5079917;28;46358;-51
2021/09/18 06:10:30;;;;;;;;;9.75;9.75;;;;;23.35;43.35;100913.88;5061323;28;45186;-55
2021/09/18 06:12:55;;;;;;;;;8.75;8.75;;;;;23.35;43.55;100921.78;5079770;28;45430;-49
2021/09/18 06:15:20;;;;;;;;;10.00;10.00;;;;;23.33;43.23;100921.03;5079909;28;45359;-45
2021/09/18 06:17:46;;;;;;;;;10.50;10.50;;;;;23.32;43.50;100929.94;5079530;28;46166;-50
2021/09/18 06:20:11;;;;;;;;;8.00;8.00;;;;;23.32;43.25;100929.94;5061084;28;45640;-49
2021/09/18 06:22:37;;;;;;;;;9.25;9.25;;;;;23.31;43.57;100920.31;5079558;28;45358;-50
2021/09/18 06:25:03;;;;;;;;;11.50;11.50;;;;;23.31;43.71;100922.97;5079723;28;45705;-48
2021/09/18 06:27:28;;;;;;;;;10.00;9.50;;;;;23.29;43.44;100925.69;5079163;28;46656;-47
2021/09/18 06:29:54;;;;;;;;;9.25;8.75;;;;;23.33;43.43;100930.78;5079206;28;45317;-47
2021/09/18 06:32:19;;;;;;;;;10.75;10.00;;;;;23.33;43.50;100926.34;5079185;28;45318;-49
2021/09/18 06:34:45;;;;;;;;;11.00;10.00;;;;;23.33;43.47;100922.84;5079426;28;45367;-46
2021/09/18 06:37:10;;;;;;;;;9.25;9.25;;;;;23.32;43.50;100914.06;5079053;28;46450;-49
2021/09/18 06:39:36;;;;;;;;;5.00;5.00;;;;;23.34;43.64;100921.91;5079274;28;45446;-48
2021/09/18 06:42:02;;;;;;;;;12.25;10.25;;;;;23.34;43.55;100921.91;5079439;28;45789;-49
2021/09/18 06:44:27;;;;;;;;;10.00;9.00;;;;;23.33;43.20;100913.13;5079322;28;45242;-48
2021/09/18 06:46:53;;;;;;;;;12.75;10.25;;;;;23.34;43.02;100922.75;5078978;28;46440;-52
2021/09/18 06:49:18;;;;;;;;;10.25;9.25;;;;;23.34;42.97;100922.75;5078926;28;45358;-48
2021/09/18 06:51:43;;;;;;;;;7.50;7.25;;;;;23.33;43.43;100918.41;5078957;28;45244;-52
2021/09/18 06:54:09;;;;;;;;;11.25;9.75;;;;;23.35;43.73;100926.25;5078029;28;45300;-53
2021/09/18 06:56:34;;;;;;;;;9.00;9.00;;;;;23.33;43.72;100918.41;5078918;28;49574;-49
2021/09/18 06:58:59;;;;;;;;;10.25;9.75;;;;;23.35;43.12;100923.59;5078741;28;45254;-47
2021/09/18 07:01:27;;;;;;;;;11.00;8.50;;;;;23.34;43.49;100922.75;5078678;28;45522;-54
2021/09/18 07:03:53;;;;;;;;;11.00;11.00;;;;;23.33;43.12;100921.03;5078896;28;45331;-47
2021/09/18 07:06:18;;;;;;;;;9.00;9.00;;;;;23.34;43.48;100924.56;5078627;28;45417;-50
2021/09/18 07:08:44;;;;;;;;;10.00;9.00;;;;;23.32;43.17;100924.63;5078517;28;45331;-48
2021/09/18 07:11:09;;;;;;;;;10.00;10.00;;;;;23.28;43.55;100918.72;5078635;28;45488;-56
2021/09/18 07:13:34;;;;;;;;;11.25;9.25;;;;;23.31;43.17;100925.63;5060801;28;45631;-51
2021/09/18 07:16:00;;;;;;;;;6.75;6.75;;;;;23.31;43.11;100920.31;5060136;28;47155;-47
2021/09/18 07:18:25;;;;;;;;;9.25;9.25;;;;;23.33;43.37;100930.78;5078391;28;45399;-53
2021/09/18 07:20:51;;;;;;;;;10.00;10.00;;;;;23.34;43.32;100933.31;5078593;28;45413;-51
2021/09/18 07:23:16;;;;;;;;;9.75;9.00;;;;;23.34;43.37;100925.38;5078622;28;45586;-51
2021/09/18 07:25:42;;;;;;;;;12.75;10.50;;;;;23.36;43.24;100930.59;5078220;28;46035;-50
2021/09/18 07:28:07;;;;;;;;;10.00;9.00;;;;;23.36;43.27;100928.78;5078691;28;45279;-52
2021/09/18 07:30:33;;;;;;;;;8.25;8.25;;;;;23.38;43.33;100934.81;5078526;28;45272;-53
2021/09/18 07:32:59;;;;;;;;;10.25;9.75;;;;;23.38;43.33;100929.53;5078577;28;45697;-56
2021/09/18 07:35:24;;;;;;;;;9.50;9.00;;;;;23.38;43.66;100934.81;5078186;28;45630;-50
2021/09/18 07:37:49;;;;;;;;;10.50;9.50;;;;;23.38;43.37;100932.19;5078171;28;45236;-57
2021/09/18 07:40:15;;;;;;;;;9.75;9.75;;;;;23.37;42.78;100925.19;5078282;28;45236;-54
2021/09/18 07:42:41;;;;;;;;;10.75;10.75;;;;;23.38;43.40;100933.97;5078329;28;45335;-47
2021/09/18 07:45:07;;;;;;;;;10.25;9.25;;;;;23.38;43.37;100933.97;5078290;28;45632;-50
2021/09/18 07:47:33;;;;;;;;;9.00;9.00;;;;;23.37;43.09;100937.59;5078002;28;45408;-54
2021/09/18 07:49:58;;;;;;;;;10.50;8.25;;;;;23.38;43.07;100934.81;5059732;28;45524;-48
2021/09/18 07:52:23;;;;;;;;;9.50;9.00;;;;;23.38;43.52;100945.41;5077715;28;45582;-51
2021/09/18 07:54:49;;;;;;;;;11.25;11.25;;;;;23.39;42.89;100939.19;5077453;28;46024;-53
2021/09/18 07:57:15;;;;;;;;;11.75;9.00;;;;;23.39;43.15;100940.94;5077366;28;45328;-49
2021/09/18 07:59:40;;;;;;;;;9.75;8.25;;;;;23.41;43.10;100942.56;5077444;28;45516;-50
2021/09/18 08:02:06;;;;;;;;;11.75;10.00;;;;;23.42;43.28;100940.75;5059976;28;45333;-53
2021/09/18 08:04:32;;;;;;;;;10.00;10.00;;;;;23.44;43.23;100944.16;5077569;28;45282;-49
2021/09/18 08:06:57;;;;;;;;;10.75;10.75;;;;;23.44;43.04;100945.00;5077737;28;45386;-46
2021/09/18 08:09:24;;;;;;;;;11.75;10.50;;;;;23.45;42.73;100951.16;5077624;28;45381;-48
2021/09/18 08:11:50;;;;;;;;;10.75;10.75;;;;;23.42;43.25;100943.41;5077872;28;45477;-49
2021/09/18 08:14:15;;;;;;;;;9.75;8.75;;;;;23.46;42.79;100948.38;5077569;28;47101;-59
2021/09/18 08:16:40;;;;;;;;;10.50;9.25;;;;;23.46;43.12;100958.97;5077761;28;45804;-48
2021/09/18 08:19:06;;;;;;;;;8.25;8.00;;;;;23.47;43.04;100947.44;5078108;28;45570;-51
2021/09/18 08:21:31;;;;;;;;;13.00;10.50;;;;;23.50;43.14;100958.78;5077604;28;45676;-49
2021/09/18 08:23:56;;;;;;;;;10.00;8.75;;;;;23.52;42.58;100954.22;5077415;28;45398;-50
2021/09/18 08:26:28;;;;;;;;;12.00;12.00;;;;;23.51;43.26;100949.88;5076964;28;45474;-56
2021/09/18 08:28:53;;;;;;;;;11.00;10.00;;;;;23.51;42.90;100960.47;5077630;28;45235;-56
2021/09/18 08:31:18;;;;;;;;;11.75;9.25;;;;;23.52;42.85;100962.16;5077393;28;45578;-51
2021/09/18 08:33:44;;;;;;;;;11.25;11.00;;;;;23.52;42.97;100954.22;5059029;28;46995;-52
2021/09/18 08:36:09;;;;;;;;;9.00;9.00;;;;;23.53;43.16;100955.94;5077519;28;45440;-49
2021/09/18 08:38:34;;;;;;;;;7.00;7.00;;;;;23.52;42.94;100952.41;5077461;28;45244;-53
2021/09/18 08:41:00;;;;;;;;;10.75;9.25;;;;;23.54;42.69;100957.59;5077410;28;45483;-49
2021/09/18 08:43:25;;;;;;;;;6.50;6.50;;;;;23.53;43.03;100954.13;5077062;28;46614;-47
2021/09/18 08:45:51;;;;;;;;;10.75;9.25;;;;;23.54;42.66;100949.66;5077078;28;45240;-47
2021/09/18 08:48:17;;;;;;;;;9.75;9.00;;;;;23.55;42.74;100946.06;5077204;28;45178;-52
2021/09/18 08:50:42;;;;;;;;;10.00;9.50;;;;;23.55;42.56;100941.66;5077495;28;45497;-49
2021/09/18 08:53:08;;;;;;;;;10.75;8.00;;;;;23.57;42.88;100944.19;5059017;28;47133;-45
2021/09/18 08:55:33;;;;;;;;;7.75;7.75;;;;;23.59;42.59;100947.56;5076955;28;45353;-55
2021/09/18 08:57:59;;;;;;;;;8.50;8.50;;;;;23.59;42.86;100948.41;5077076;28;45326;-47
2021/09/18 09:00:30;;;;;;;;;8.75;8.75;;;;;23.60;42.50;100947.47;5076990;28;45440;-50
2021/09/18 09:02:57;;;;;;;;;10.50;9.75;;;;;23.60;42.54;100944.81;5076679;28;47428;-51
2021/09/18 09:05:26;;;;;;;;;9.00;9.00;;;;;23.61;42.65;100945.69;5076678;28;45946;-47
2021/09/18 09:08:07;;;;;;;;;11.00;8.00;;;;;23.61;42.51;100945.69;5076989;28;45382;-51
2021/09/18 09:10:34;;;;;;;;;8.00;8.00;;;;;23.63;42.97;100949.06;5077050;28;45521;-46
2021/09/18 09:13:07;;;;;;;;;9.25;9.25;;;;;23.62;42.70;100947.38;5076571;28;46167;-47
2021/09/18 09:15:33;;;;;;;;;8.50;7.75;;;;;23.65;42.86;100941.03;5076301;28;45434;-46
2021/09/18 09:18:21;;;;;;;;;10.50;10.00;;;;;23.64;42.31;100940.19;5076270;28;45963;-46
2021/09/18 09:20:48;;;;;;;;;9.25;8.75;;;;;23.64;42.37;100940.19;5076908;28;45577;-46
2021/09/18 09:23:19;;;;;;;;;9.75;9.50;;;;;23.65;42.54;100931.28;5076735;28;46378;-50
2021/09/18 09:25:51;;;;;;;;;9.00;9.00;;;;;23.63;42.30;100928.75;5076451;28;45425;-53
2021/09/18 09:28:47;;;;;;;;;9.00;9.00;;;;;23.67;42.61;100934.66;5076658;28;45246;-46
2021/09/18 09:31:26;;;;;;;;;10.25;10.25;;;;;23.67;42.82;100939.13;5068202;28;45508;-46
2021/09/18 09:34:06;;;;;;;;;8.75;8.75;;;;;23.68;42.37;100941.66;5076568;28;46309;-48
2021/09/18 09:36:40;;;;;;;;;9.25;9.25;;;;;23.68;42.41;100933.72;5076386;28;45993;-50
2021/09/18 09:39:08;;;;;;;;;12.50;8.50;;;;;23.69;42.28;100927.47;5076600;28;45304;-47
2021/09/18 09:41:35;;;;;;;;;10.25;7.50;;;;;23.71;42.46;100928.22;5076630;28;45368;-47
2021/09/18 09:44:03;;;;;;;;;14.00;11.00;;;;;23.70;42.25;100931.00;5076217;28;46453;-48
2021/09/18 09:46:29;;;;;;;;;11.00;10.25;;;;;23.73;42.56;100926.34;5076173;28;45853;-49
2021/09/18 09:49:13;;;;;;;;;10.50;10.50;;;;;23.73;42.64;100921.03;5076345;27;45174;-49
2021/09/18 09:51:42;;;;;;;;;12.25;12.25;;;;;23.73;42.46;100931.63;5076347;28;45146;-47
2021/09/18 09:54:26;;;;;;;;;11.00;10.00;;;;;23.73;42.39;100926.34;5076036;28;46299;-52
2021/09/18 09:57:12;;;;;;;;;9.75;9.75;;;;;23.73;42.12;100928.97;5076435;28;45493;-46
2021/09/18 09:59:39;;;;;;;;;10.50;10.50;;;;;23.74;42.63;100925.38;5075923;28;45375;-50
2021/09/18 10:02:07;;;;;;;;;8.25;8.25;;;;;23.75;42.27;100927.09;5076436;28;45256;-50
2021/09/18 10:04:34;;;;;;;;;9.75;9.75;;;;;23.75;42.55;100926.22;5075898;28;45588;-48
2021/09/18 10:06:59;;;;;;;;;11.75;10.50;;;;;23.75;42.53;100916.50;5076037;28;45441;-47
2021/09/18 10:09:25;;;;;;;;;10.25;10.25;;;;;23.74;42.32;100929.81;5076031;28;45389;-50
2021/09/18 10:11:54;;;;;;;;;7.25;7.25;;;;;23.76;42.41;100926.09;5076043;28;45561;-46
2021/09/18 10:14:22;;;;;;;;;9.50;9.00;;;;;23.77;42.45;100919.88;5075815;28;46643;-53
2021/09/18 10:16:49;;;;;;;;;11.00;10.00;;;;;23.79;42.76;100927.72;5075890;28;45727;-49
2021/09/18 10:19:17;;;;;;;;;11.75;11.00;;;;;23.76;42.41;100923.47;5076300;28;45287;-50
2021/09/18 10:24:28;;;;;;;;;9.75;7.00;;;;;23.80;42.63;100920.63;5075601;28;45664;-46
2021/09/18 10:27:12;;;;;;;;;9.25;9.00;;;;;23.81;42.71;100917.00;5075809;28;45366;-49
2021/09/18 10:29:37;;;;;;;;;9.00;9.00;;;;;23.81;42.65;100917.88;5079481;28;45485;-50
2021/09/18 10:32:03;;;;;;;;;8.25;7.50;;;;;23.82;42.21;100916.91;5079443;28;45510;-47
2021/09/18 10:34:28;;;;;;;;;7.50;7.50;;;;;23.82;42.60;100918.72;5079072;28;46520;-50
2021/09/18 10:36:54;;;;;;;;;8.75;8.50;;;;;23.84;42.66;100920.28;5079047;28;45363;-54
2021/09/18 10:39:19;;;;;;;;;7.75;7.75;;;;;23.83;42.52;100910.66;5079174;28;45387;-47
2021/09/18 10:41:51;;;;;;;;;8.00;8.00;;;;;23.85;42.52;100916.69;5079698;28;45253;-47
2021/09/18 10:44:18;;;;;;;;;9.25;9.25;;;;;23.85;42.46;100900.81;5079211;28;45480;-48
2021/09/18 10:46:50;;;;;;;;;9.50;8.25;;;;;23.86;42.58;100893.75;5079375;28;45323;-47
2021/09/18 10:49:37;;;;;;;;;8.50;8.50;;;;;23.86;42.53;100897.22;5079403;28;45235;-47
2021/09/18 10:52:21;;;;;;;;;12.00;10.00;;;;;23.89;42.33;100888.22;5079190;28;45665;-46
2021/09/18 10:55:10;;;;;;;;;7.75;7.75;;;;;23.90;42.81;100892.56;5079095;28;45469;-51
2021/09/18 10:57:39;;;;;;;;;9.50;8.00;;;;;23.89;42.68;100886.44;5060534;28;45998;-47
2021/09/18 11:00:05;;;;;;;;;9.50;9.50;;;;;23.88;42.57;100884.75;5078778;28;45763;-52
2021/09/18 11:02:30;;;;;;;;;10.00;10.00;;;;;23.89;42.90;100885.56;5079206;28;45551;-50
2021/09/18 11:05:03;;;;;;;;;7.25;7.25;;;;;23.90;42.67;100877.53;5078597;28;45347;-50
2021/09/18 11:07:40;;;;;;;;;8.00;8.00;;;;;23.90;42.67;100866.09;5078806;28;45265;-47
2021/09/18 11:10:13;;;;;;;;;7.00;6.00;;;;;23.90;42.87;100874.03;5078815;28;45326;-48
2021/09/18 11:12:38;;;;;;;;;7.75;7.50;;;;;23.91;42.47;100873.09;5078918;28;45505;-49
2021/09/18 11:15:09;;;;;;;;;9.00;8.00;;;;;23.91;42.29;100878.38;5078382;28;46461;-47